Time;durP1;ratioP1;P1;durP2;ratioP2;P2;SDS_P1;SDS_P2;PMS_P1;PMS_P2;Temp;Humidity;BMP_temperature;BMP_pressure;BME280_temperature;BME280_humidity;BME280_pressure;Samples;Min_cycle;Max_cycle;Signal;HPM_P1;HPM_P2
2022/03/02 00:01:35;;;;;;;;;;;;;;;0.64;47.82;98910.91;5006685;28;20344;-89
2022/03/02 00:04:03;;;;;;;;;;;;;;;0.78;47.24;98912.38;5009009;28;19936;-90
2022/03/02 00:09:24;;;;;;;;;;;;;;;0.73;47.64;98922.13;5009318;28;19980;-86
2022/03/02 00:11:53;;;;;;;;;;;;;;;0.76;47.12;98933.19;5008966;28;19980;-89
2022/03/02 00:14:21;;;;;;;;;;;;;;;0.69;47.36;98918.25;5009482;28;20041;-89
2022/03/02 00:16:55;;;;;;;;;;;;;;;0.75;47.32;98915.53;5006331;28;19936;-89
2022/03/02 00:19:24;;;;;;;;;;;;;;;0.58;47.91;98909.09;5006862;28;19925;-89
2022/03/02 00:21:52;;;;;;;;;;;;;;;0.74;47.73;98911.19;5009327;28;19925;-87
2022/03/02 00:24:20;;;;;;;;;;;;;;;0.83;47.40;98903.69;5008821;28;19936;-89
2022/03/02 00:26:50;;;;;;;;;;;;;;;0.56;47.85;98905.03;5009225;28;20451;-89
2022/03/02 00:29:18;;;;;;;;;;;;;;;0.52;48.34;98894.78;5008857;28;19926;-88
2022/03/02 00:31:46;;;;;;;;;;;;;;;0.44;48.68;98895.06;5020315;28;19926;-89
2022/03/02 00:34:14;;;;;;;;;;;;;;;0.34;48.87;98894.78;4991722;28;19925;-90
2022/03/02 00:36:42;;;;;;;;;;;;;;;0.18;49.25;98880.13;5009883;28;20323;-89
2022/03/02 00:39:10;;;;;;;;;;;;;;;0.15;49.33;98869.03;5009197;28;19930;-90
2022/03/02 00:41:38;;;;;;;;;;;;;;;0.06;49.82;98867.72;5009667;28;19993;-90
2022/03/02 00:44:08;;;;;;;;;;;;;;;0.10;49.79;98867.03;5010885;28;19977;-90
2022/03/02 00:46:36;;;;;;;;;;;;;;;0.00;50.10;98866.75;5023322;28;19979;-90
2022/03/02 00:49:04;;;;;;;;;;;;;;;0.01;50.00;98870.22;5027866;28;19925;-90
2022/03/02 00:51:57;;;;;;;;;;;;;;;0.15;49.66;98869.03;5025579;28;19932;-88
2022/03/02 00:54:25;;;;;;;;;;;;;;;0.28;48.93;98865.44;5027800;28;19929;-89
2022/03/02 00:56:53;;;;;;;;;;;;;;;0.24;49.45;98862.38;5026675;28;19933;-87
2022/03/02 00:59:22;;;;;;;;;;;;;;;0.31;48.57;98860.44;5010368;28;19980;-91
2022/03/02 01:01:56;;;;;;;;;;;;;;;0.23;48.99;98860.75;5024040;28;19933;-88
2022/03/02 01:04:25;;;;;;;;;;;;;;;0.31;48.62;98863.13;5025615;28;19944;-89
2022/03/02 01:06:53;;;;;;;;;;;;;;;0.40;48.43;98859.13;5029513;28;20518;-88
2022/03/02 01:09:21;;;;;;;;;;;;;;;0.30;48.78;98855.34;5028032;28;20017;-88
2022/03/02 01:11:49;;;;;;;;;;;;;;;0.11;49.12;98852.66;5024278;28;20355;-90
2022/03/02 01:14:17;;;;;;;;;;;;;;;0.28;48.81;98847.53;5028145;28;19925;-88
2022/03/02 01:16:46;;;;;;;;;;;;;;;0.12;49.47;98848.94;5024820;28;19925;-88
2022/03/02 01:19:14;;;;;;;;;;;;;;;0.12;49.30;98851.59;5027756;28;19926;-88
2022/03/02 01:21:42;;;;;;;;;;;;;;;0.19;48.73;98841.66;5026956;28;19955;-90
2022/03/02 01:24:10;;;;;;;;;;;;;;;0.39;48.21;98836.13;5027272;28;20028;-86
2022/03/02 01:26:38;;;;;;;;;;;;;;;0.35;48.75;98840.25;5026877;28;19964;-88
2022/03/02 01:29:06;;;;;;;;;;;;;;;0.45;48.43;98837.88;5027658;28;19925;-87
2022/03/02 01:31:34;;;;;;;;;;;;;;;0.33;48.34;98838.88;5025220;28;19925;-90
2022/03/02 01:34:03;;;;;;;;;;;;;;;0.37;47.99;98832.81;5027950;28;19928;-90
2022/03/02 01:36:31;;;;;;;;;;;;;;;0.39;48.12;98837.97;5026353;28;19934;-89
2022/03/02 01:38:59;;;;;;;;;;;;;;;0.21;48.66;98834.25;5027084;28;20040;-88
2022/03/02 01:41:27;;;;;;;;;;;;;;;0.32;48.30;98837.22;5029396;28;19929;-88
2022/03/02 01:43:55;;;;;;;;;;;;;;;0.48;48.16;98831.25;5028706;28;19934;-88
2022/03/02 01:46:24;;;;;;;;;;;;;;;0.31;48.57;98825.69;5008051;28;19930;-87
2022/03/02 01:48:52;;;;;;;;;;;;;;;0.41;48.05;98820.66;5009729;28;19933;-90
2022/03/02 01:51:21;;;;;;;;;;;;;;;0.33;48.41;98818.28;5007445;28;20344;-89
2022/03/02 01:53:49;;;;;;;;;;;;;;;0.22;48.99;98816.38;5009354;28;19925;-90
2022/03/02 01:56:17;;;;;;;;;;;;;;;0.19;48.70;98811.44;5010791;28;19953;-88
2022/03/02 01:58:45;;;;;;;;;;;;;;;0.19;48.56;98806.09;5011994;28;19948;-88
2022/03/02 02:01:13;;;;;;;;;;;;;;;0.07;48.88;98800.69;5009106;28;19937;-89
2022/03/02 02:03:41;;;;;;;;;;;;;;;0.04;49.46;98801.13;5011129;28;19930;-89
2022/03/02 02:06:09;;;;;;;;;;;;;;;0.00;49.75;98807.97;5010932;28;19929;-89
2022/03/02 02:08:38;;;;;;;;;;;;;;;0.23;49.19;98802.78;5025180;28;19996;-89
2022/03/02 02:11:06;;;;;;;;;;;;;;;0.35;48.26;98810.03;5011886;28;19929;-87
2022/03/02 02:13:34;;;;;;;;;;;;;;;0.07;49.13;98808.72;5011019;28;19996;-91
2022/03/02 02:16:06;;;;;;;;;;;;;;;0.05;49.71;98802.75;5007583;28;20016;-87
2022/03/02 02:18:34;;;;;;;;;;;;;;;-0.04;49.78;98807.59;5010142;28;19986;-90
2022/03/02 02:21:07;;;;;;;;;;;;;;;0.09;49.57;98805.81;5011619;28;19929;-86
2022/03/02 02:23:35;;;;;;;;;;;;;;;0.30;48.98;98808.03;4993773;28;21115;-88
2022/03/02 02:26:06;;;;;;;;;;;;;;;0.43;48.66;98802.56;5012174;28;20345;-89
2022/03/02 02:28:35;;;;;;;;;;;;;;;0.20;48.91;98805.88;5012788;28;19982;-89
2022/03/02 02:31:03;;;;;;;;;;;;;;;0.30;48.55;98813.38;5009686;28;19933;-88
2022/03/02 02:33:35;;;;;;;;;;;;;;;0.33;48.68;98809.47;5011644;28;20396;-90
2022/03/02 02:36:07;;;;;;;;;;;;;;;0.35;48.56;98810.84;5011834;28;19953;-90
2022/03/02 02:38:37;;;;;;;;;;;;;;;0.53;48.25;98796.66;5012130;28;20325;-87
2022/03/02 02:41:05;;;;;;;;;;;;;;;0.50;48.25;98802.47;5012655;28;19932;-89
2022/03/02 02:43:34;;;;;;;;;;;;;;;0.56;48.11;98798.06;5010600;28;19925;-88
2022/03/02 02:46:01;;;;;;;;;;;;;;;0.68;47.69;98798.94;5010540;28;19926;-90
2022/03/02 02:48:31;;;;;;;;;;;;;;;0.61;48.09;98799.03;5012229;28;19932;-89
2022/03/02 02:50:59;;;;;;;;;;;;;;;0.51;48.02;98793.41;5011861;28;19933;-89
2022/03/02 02:53:28;;;;;;;;;;;;;;;0.56;47.92;98796.22;5012946;28;19925;-88
2022/03/02 02:55:56;;;;;;;;;;;;;;;0.65;47.86;98786.03;5010287;28;19932;-89
2022/03/02 02:58:24;;;;;;;;;;;;;;;0.61;48.04;98792.88;5011535;28;20667;-87
2022/03/02 03:00:52;;;;;;;;;;;;;;;0.50;48.41;98797.13;5023933;28;19933;-90
2022/03/02 03:03:21;;;;;;;;;;;;;;;0.39;48.95;98785.31;5008222;28;19945;-89
2022/03/02 03:05:52;;;;;;;;;;;;;;;0.51;48.22;98783.53;5009789;28;20320;-90
2022/03/02 03:08:20;;;;;;;;;;;;;;;0.51;48.49;98788.88;5008870;28;20482;-88
2022/03/02 03:10:50;;;;;;;;;;;;;;;0.59;48.65;98784.28;4993770;28;19925;-89
2022/03/02 03:13:18;;;;;;;;;;;;;;;0.61;48.48;98787.53;5011522;28;19925;-88
2022/03/02 03:15:48;;;;;;;;;;;;;;;0.58;48.56;98786.09;5009821;28;19968;-90
2022/03/02 03:18:17;;;;;;;;;;;;;;;0.35;49.45;98781.47;5009585;28;20372;-87
2022/03/02 03:20:44;;;;;;;;;;;;;;;0.66;48.56;98787.66;5010981;28;19975;-85
2022/03/02 03:23:12;;;;;;;;;;;;;;;0.51;48.89;98788.06;5010476;28;20426;-89
2022/03/02 03:25:40;;;;;;;;;;;;;;;0.32;49.38;98783.75;5010064;28;19980;-90
2022/03/02 03:28:09;;;;;;;;;;;;;;;0.35;48.88;98784.13;5011206;28;19930;-89
2022/03/02 03:30:37;;;;;;;;;;;;;;;0.44;48.77;98782.78;5010666;28;19926;-90
2022/03/02 03:33:05;;;;;;;;;;;;;;;0.25;49.42;98773.97;5012203;28;20020;-88
2022/03/02 03:35:34;;;;;;;;;;;;;;;0.22;49.80;98773.59;4992754;28;20540;-86
2022/03/02 03:38:01;;;;;;;;;;;;;;;0.47;49.11;98768.97;5012083;28;19932;-88
2022/03/02 03:40:29;;;;;;;;;;;;;;;0.51;48.96;98774.69;5009921;28;19925;-89
2022/03/02 03:42:57;;;;;;;;;;;;;;;0.35;49.43;98768.09;5023198;28;20327;-88
2022/03/02 03:45:27;;;;;;;;;;;;;;;0.32;49.65;98773.06;5011851;28;19972;-89
2022/03/02 03:47:55;;;;;;;;;;;;;;;0.46;49.18;98766.53;5010138;28;19971;-89
2022/03/02 03:50:23;;;;;;;;;;;;;;;0.38;49.65;98773.00;5011582;28;19938;-89
2022/03/02 03:52:53;;;;;;;;;;;;;;;0.55;48.98;98767.84;5012418;28;19934;-88
2022/03/02 03:55:21;;;;;;;;;;;;;;;0.45;49.27;98756.88;5009003;28;20033;-88
2022/03/02 03:57:49;;;;;;;;;;;;;;;0.16;49.81;98759.28;5009988;28;19925;-88
2022/03/02 04:00:18;;;;;;;;;;;;;;;0.42;49.37;98751.97;5009022;28;19926;-88
2022/03/02 04:02:48;;;;;;;;;;;;;;;0.59;48.83;98757.53;5010185;28;19926;-89
2022/03/02 04:05:16;;;;;;;;;;;;;;;0.48;49.30;98756.41;5010955;28;19932;-88
2022/03/02 04:07:45;;;;;;;;;;;;;;;0.56;49.13;98750.75;5008875;28;19926;-88
2022/03/02 04:10:14;;;;;;;;;;;;;;;0.37;49.56;98741.94;5010256;28;20024;-89
2022/03/02 04:12:42;;;;;;;;;;;;;;;0.39;49.69;98747.91;5007973;28;19930;-86
2022/03/02 04:15:09;;;;;;;;;;;;;;;0.47;49.41;98741.41;5008691;28;19937;-88
2022/03/02 04:17:37;;;;;;;;;;;;;;;0.45;49.35;98741.66;5008838;28;19968;-89
2022/03/02 04:20:08;;;;;;;;;;;;;;;0.38;49.45;98732.91;5008606;28;19926;-90
2022/03/02 04:22:36;;;;;;;;;;;;;;;0.35;50.23;98733.34;5008505;28;19933;-88
2022/03/02 04:25:03;;;;;;;;;;;;;;;0.33;50.19;98726.59;5008881;28;20351;-88
2022/03/02 04:27:31;;;;;;;;;;;;;;;0.33;50.16;98719.41;5010232;28;19925;-89
2022/03/02 04:30:01;;;;;;;;;;;;;;;0.43;50.03;98717.00;5009138;28;20403;-88
2022/03/02 04:32:29;;;;;;;;;;;;;;;0.54;50.02;98701.25;5010191;28;19926;-88
2022/03/02 04:34:57;;;;;;;;;;;;;;;0.39;50.34;98694.44;5024968;28;19961;-87
2022/03/02 04:37:28;;;;;;;;;;;;;;;0.42;50.10;98691.28;5023322;28;19936;-90
2022/03/02 04:39:56;;;;;;;;;;;;;;;0.29;50.89;98691.50;5010368;28;19940;-90
2022/03/02 04:42:24;;;;;;;;;;;;;;;0.37;50.24;98680.47;5006405;28;19945;-90
2022/03/02 04:44:52;;;;;;;;;;;;;;;0.24;50.64;98686.81;5014140;28;19959;-88
2022/03/02 04:47:20;;;;;;;;;;;;;;;0.33;50.78;98679.31;5010286;28;19933;-89
2022/03/02 04:49:55;;;;;;;;;;;;;;;0.30;50.98;98677.06;5012111;28;19955;-90
2022/03/02 04:52:23;;;;;;;;;;;;;;;0.39;50.70;98677.59;5014778;28;19925;-89
2022/03/02 04:55:09;;;;;;;;;;;;;;;0.45;50.25;98679.34;5015155;28;20272;-88
2022/03/02 04:57:38;;;;;;;;;;;;;;;0.31;51.14;98675.22;5014123;28;19925;-91
2022/03/02 05:00:08;;;;;;;;;;;;;;;0.06;51.84;98675.34;5013970;28;19972;-89
2022/03/02 05:02:36;;;;;;;;;;;;;;;-0.19;52.40;98670.91;5015300;28;19925;-89
2022/03/02 05:05:28;;;;;;;;;;;;;;;-0.35;52.98;98683.00;5004973;28;20019;-90
2022/03/02 05:10:49;;;;;;;;;;;;;;;0.06;51.53;98689.53;5012561;28;19932;-88
2022/03/02 05:13:17;;;;;;;;;;;;;;;0.02;51.65;98687.53;4993401;28;19988;-85
2022/03/02 05:15:45;;;;;;;;;;;;;;;0.13;51.49;98695.59;5015098;28;19961;-89
2022/03/02 05:18:13;;;;;;;;;;;;;;;0.38;50.67;98695.50;5012918;28;20353;-87
2022/03/02 05:20:42;;;;;;;;;;;;;;;0.23;50.76;98695.88;5013407;28;19940;-88
2022/03/02 05:23:09;;;;;;;;;;;;;;;0.00;51.72;98690.44;5016272;28;19968;-91
2022/03/02 05:25:37;;;;;;;;;;;;;;;0.39;50.73;98689.09;5007387;28;20016;-89
2022/03/02 05:28:07;;;;;;;;;;;;;;;0.56;50.24;98688.47;5010386;28;19940;-90
2022/03/02 05:30:34;;;;;;;;;;;;;;;0.55;50.56;98684.16;5016115;28;20036;-89
2022/03/02 05:33:02;;;;;;;;;;;;;;;0.62;49.93;98687.53;5016929;28;19929;-89
2022/03/02 05:35:30;;;;;;;;;;;;;;;0.40;50.94;98688.03;5022068;28;19936;-90
2022/03/02 05:37:59;;;;;;;;;;;;;;;0.56;50.01;98688.47;5013463;28;19957;-88
2022/03/02 05:40:27;;;;;;;;;;;;;;;0.36;50.44;98684.19;5020387;28;20328;-89
2022/03/02 05:42:57;;;;;;;;;;;;;;;0.52;50.19;98693.44;5019943;28;19996;-81
2022/03/02 05:45:27;;;;;;;;;;;;;;;0.60;49.59;98689.63;5030297;28;20017;-93
2022/03/02 05:47:55;;;;;;;;;;;;;;;0.66;49.81;98691.41;5024506;28;19952;-90
2022/03/02 05:50:25;;;;;;;;;;;;;;;0.69;49.96;98693.59;5013358;28;20351;-89
2022/03/02 05:52:53;;;;;;;;;;;;;;;0.67;49.87;98699.19;5029730;28;19932;-92
2022/03/02 05:55:21;;;;;;;;;;;;;;;0.73;50.01;98697.44;5011574;28;19926;-80
2022/03/02 05:57:49;;;;;;;;;;;;;;;0.44;50.53;98697.25;5013903;28;19933;-79
2022/03/02 06:00:18;;;;;;;;;;;;;;;0.31;50.98;98702.75;5009385;28;20400;-80
2022/03/02 06:02:52;;;;;;;;;;;;;;;0.59;50.27;98704.06;5013318;28;19930;-80
2022/03/02 06:05:20;;;;;;;;;;;;;;;0.82;49.84;98700.63;5014333;28;19932;-89
2022/03/02 06:07:48;;;;;;;;;;;;;;;0.79;49.36;98704.56;5012875;28;20384;-86
2022/03/02 06:10:16;;;;;;;;;;;;;;;0.81;49.22;98702.50;5011674;28;20064;-81
2022/03/02 06:12:47;;;;;;;;;;;;;;;0.84;48.89;98703.88;5013252;28;19929;-86
2022/03/02 06:15:15;;;;;;;;;;;;;;;0.74;49.77;98715.13;5044365;28;19997;-93
2022/03/02 06:17:44;;;;;;;;;;;;;;;0.75;49.43;98708.75;5032906;28;19909;-93
2022/03/02 06:20:14;;;;;;;;;;;;;;;0.93;49.21;98708.69;5036752;28;19916;-90
2022/03/02 06:22:42;;;;;;;;;;;;;;;0.67;48.91;98707.22;5039037;28;19925;-85
2022/03/02 06:28:45;;;;;;;;;;;;;;;1.09;48.69;98719.75;5030846;28;19951;-93
2022/03/02 06:31:13;;;;;;;;;;;;;;;1.01;49.04;98704.84;5028331;28;19934;-91
2022/03/02 06:33:41;;;;;;;;;;;;;;;0.89;49.67;98709.34;5017910;28;19925;-92
2022/03/02 06:36:12;;;;;;;;;;;;;;;0.90;49.56;98713.66;5018849;28;19926;-90
2022/03/02 06:38:40;;;;;;;;;;;;;;;0.68;49.90;98713.38;5021206;28;19948;-92
2022/03/02 06:41:12;;;;;;;;;;;;;;;0.95;49.33;98717.28;5023126;28;19936;-93
2022/03/02 06:43:45;;;;;;;;;;;;;;;0.80;49.97;98716.91;5020074;28;19929;-90
2022/03/02 06:46:17;;;;;;;;;;;;;;;0.90;49.36;98710.97;5032513;28;19940;-86
2022/03/02 06:48:47;;;;;;;;;;;;;;;1.28;48.49;98714.09;5027438;28;20013;-89
2022/03/02 06:51:19;;;;;;;;;;;;;;;1.24;48.63;98715.59;5010084;28;19972;-88
2022/03/02 06:53:47;;;;;;;;;;;;;;;1.17;48.62;98712.22;5011652;28;20016;-80
2022/03/02 06:56:15;;;;;;;;;;;;;;;1.17;48.76;98716.72;5000647;28;19933;-81
2022/03/02 06:58:43;;;;;;;;;;;;;;;1.17;49.20;98711.38;5006890;28;19960;-80
2022/03/02 07:01:12;;;;;;;;;;;;;;;1.14;49.30;98711.88;5017655;28;19933;-92
2022/03/02 07:03:42;;;;;;;;;;;;;;;0.74;50.06;98717.81;5019696;28;19932;-92
2022/03/02 07:06:13;;;;;;;;;;;;;;;0.82;50.11;98698.75;5017845;28;20278;-93
2022/03/02 07:08:48;;;;;;;;;;;;;;;0.91;50.14;98702.75;5017408;28;19929;-92
2022/03/02 07:11:16;;;;;;;;;;;;;;;1.11;49.29;98698.94;5014560;28;20383;-92
2022/03/02 07:13:44;;;;;;;;;;;;;;;1.12;49.64;98693.38;5028637;28;20296;-92
2022/03/02 07:16:12;;;;;;;;;;;;;;;1.31;48.96;98694.06;5018786;28;19910;-91
2022/03/02 07:18:41;;;;;;;;;;;;;;;1.33;49.01;98694.63;5041168;28;19929;-87
2022/03/02 07:21:09;;;;;;;;;;;;;;;1.38;48.86;98708.13;5034861;28;20013;-86
2022/03/02 07:23:39;;;;;;;;;;;;;;;1.54;48.45;98694.06;5038194;28;19960;-86
2022/03/02 07:26:08;;;;;;;;;;;;;;;1.68;48.08;98696.50;5043367;28;19909;-90
2022/03/02 07:28:38;;;;;;;;;;;;;;;1.05;49.71;98698.81;5061119;28;19913;-87
2022/03/02 07:31:08;;;;;;;;;;;;;;;1.16;49.81;98699.06;5062617;28;19940;-90
2022/03/02 07:33:37;;;;;;;;;;;;;;;1.38;49.49;98704.66;5055275;28;19921;-82
2022/03/02 07:36:08;;;;;;;;;;;;;;;1.45;48.87;98706.19;5051610;28;19925;-93
2022/03/02 07:38:36;;;;;;;;;;;;;;;1.06;49.26;98699.63;5053625;28;19925;-84
2022/03/02 07:41:07;;;;;;;;;;;;;;;1.19;50.03;98703.97;5053535;28;19972;-90
2022/03/02 07:43:38;;;;;;;;;;;;;;;1.35;49.45;98700.59;5057569;28;19921;-87
2022/03/02 07:46:09;;;;;;;;;;;;;;;1.46;49.18;98698.97;5055923;28;19975;-90
2022/03/02 07:49:04;;;;;;;;;;;;;;;1.17;49.99;98706.03;5058479;28;19917;-90
2022/03/02 07:51:33;;;;;;;;;;;;;;;1.31;49.75;98702.09;5041590;28;19926;-89
2022/03/02 07:54:02;;;;;;;;;;;;;;;1.42;49.92;98698.59;5052804;28;19937;-91
2022/03/02 07:56:31;;;;;;;;;;;;;;;1.55;49.23;98697.56;5059314;28;19925;-92
2022/03/02 07:59:04;;;;;;;;;;;;;;;1.48;49.37;98697.66;5054045;28;19936;-91
2022/03/02 08:01:34;;;;;;;;;;;;;;;1.68;48.91;98704.53;5058803;28;20135;-90
2022/03/02 08:04:04;;;;;;;;;;;;;;;1.81;48.84;98697.09;5074214;28;19964;-85
2022/03/02 08:06:37;;;;;;;;;;;;;;;2.00;48.46;98694.25;5055796;28;19933;-87
2022/03/02 08:09:06;;;;;;;;;;;;;;;2.20;48.02;98693.84;5056304;28;20027;-85
2022/03/02 08:11:34;;;;;;;;;;;;;;;2.24;47.66;98697.69;5056873;28;19975;-87
2022/03/02 08:14:05;;;;;;;;;;;;;;;2.05;48.17;98697.84;5056953;28;19959;-90
2022/03/02 08:16:35;;;;;;;;;;;;;;;2.19;48.63;98695.72;5051438;28;19930;-89
2022/03/02 08:19:04;;;;;;;;;;;;;;;2.29;48.01;98693.25;5050876;28;20361;-87
2022/03/02 08:21:32;;;;;;;;;;;;;;;2.46;47.60;98695.16;5056162;28;19932;-89
2022/03/02 08:24:03;;;;;;;;;;;;;;;2.40;48.00;98688.06;5063407;28;19909;-92
2022/03/02 08:26:32;;;;;;;;;;;;;;;2.39;48.28;98692.59;5053899;28;19939;-93
2022/03/02 08:29:02;;;;;;;;;;;;;;;2.68;47.14;98689.94;5050788;28;19932;-87
2022/03/02 08:31:32;;;;;;;;;;;;;;;2.71;47.08;98684.06;5034469;28;19925;-92
2022/03/02 08:34:00;;;;;;;;;;;;;;;2.68;47.57;98688.06;5051428;28;19925;-91
2022/03/02 08:36:33;;;;;;;;;;;;;;;2.89;47.08;98678.50;5048096;28;19937;-93
2022/03/02 08:39:02;;;;;;;;;;;;;;;3.02;46.65;98672.00;5049291;28;20008;-90
2022/03/02 08:41:32;;;;;;;;;;;;;;;3.14;46.13;98672.72;5045061;28;19989;-90
2022/03/02 08:44:00;;;;;;;;;;;;;;;3.19;46.28;98666.63;5047348;28;19928;-92
2022/03/02 08:46:54;;;;;;;;;;;;;;;3.24;46.35;98661.31;5045902;28;19948;-91
2022/03/02 08:49:22;;;;;;;;;;;;;;;3.39;45.88;98658.88;5049726;28;19951;-90
2022/03/02 08:51:50;;;;;;;;;;;;;;;3.56;45.59;98661.53;5047999;28;20380;-92
2022/03/02 08:54:19;;;;;;;;;;;;;;;3.67;45.46;98656.06;5046026;28;19979;-93
2022/03/02 08:56:47;;;;;;;;;;;;;;;3.91;45.17;98653.16;5040791;28;19932;-92
2022/03/02 08:59:16;;;;;;;;;;;;;;;3.79;45.26;98647.09;5043848;28;19948;-87
2022/03/02 09:01:45;;;;;;;;;;;;;;;3.89;45.12;98647.22;5044802;28;19985;-88
2022/03/02 09:04:15;;;;;;;;;;;;;;;3.91;44.71;98642.38;5045425;28;19925;-89
2022/03/02 09:06:43;;;;;;;;;;;;;;;3.80;45.39;98641.44;5042163;28;19933;-90
2022/03/02 09:09:10;;;;;;;;;;;;;;;3.79;44.92;98642.53;5042843;28;20395;-93
2022/03/02 09:11:39;;;;;;;;;;;;;;;4.00;45.16;98646.28;5045560;28;19947;-91
2022/03/02 09:14:07;;;;;;;;;;;;;;;4.18;44.15;98642.44;5048366;28;19991;-91
2022/03/02 09:16:44;;;;;;;;;;;;;;;4.27;43.18;98642.81;5048428;28;20181;-89
2022/03/02 09:19:12;;;;;;;;;;;;;;;4.22;43.42;98646.25;5049199;28;19925;-92
2022/03/02 09:21:43;;;;;;;;;;;;;;;4.09;43.91;98644.75;5041706;28;19932;-91
2022/03/02 09:24:11;;;;;;;;;;;;;;;4.30;43.11;98648.50;5030858;28;20023;-91
2022/03/02 09:26:40;;;;;;;;;;;;;;;4.58;41.89;98649.31;5063286;28;20727;-89
2022/03/02 09:29:08;;;;;;;;;;;;;;;4.37;42.51;98648.31;5065521;28;19924;-92
2022/03/02 09:31:36;;;;;;;;;;;;;;;4.42;42.59;98641.09;5062725;28;19988;-91
2022/03/02 09:34:06;;;;;;;;;;;;;;;4.30;42.29;98639.59;5067930;28;19932;-91
2022/03/02 09:36:34;;;;;;;;;;;;;;;4.40;43.18;98634.34;5081195;28;19995;-90
2022/03/02 09:39:04;;;;;;;;;;;;;;;4.58;42.91;98639.38;5040912;28;19924;-81
2022/03/02 09:41:34;;;;;;;;;;;;;;;4.83;42.39;98637.97;5059346;28;19978;-87
2022/03/02 09:44:02;;;;;;;;;;;;;;;5.02;41.83;98633.84;5051740;28;19925;-92
2022/03/02 09:46:34;;;;;;;;;;;;;;;5.15;41.03;98630.69;5051328;28;19956;-93
2022/03/02 09:49:04;;;;;;;;;;;;;;;5.14;40.13;98634.47;5039079;28;19925;-92
2022/03/02 09:51:33;;;;;;;;;;;;;;;5.17;41.10;98628.56;5050312;28;19940;-92
2022/03/02 09:54:08;;;;;;;;;;;;;;;4.98;41.11;98628.16;5059456;28;19924;-89
2022/03/02 09:56:37;;;;;;;;;;;;;;;5.07;41.65;98628.50;5056560;28;19930;-91
2022/03/02 09:59:05;;;;;;;;;;;;;;;5.40;40.19;98629.25;5056716;28;19928;-91
2022/03/02 10:01:33;;;;;;;;;;;;;;;5.51;40.72;98633.63;5039504;28;19956;-88
2022/03/02 10:04:06;;;;;;;;;;;;;;;5.31;40.30;98628.09;5039066;28;19929;-92
2022/03/02 10:06:39;;;;;;;;;;;;;;;5.63;40.42;98634.22;5025514;28;19980;-93
2022/03/02 10:09:08;;;;;;;;;;;;;;;5.60;39.70;98632.09;5047826;28;19931;-92
2022/03/02 10:11:36;;;;;;;;;;;;;;;5.53;39.32;98624.19;5057610;28;19975;-95
2022/03/02 10:14:05;;;;;;;;;;;;;;;5.69;39.23;98626.97;5057242;28;19925;-93
2022/03/02 10:22:58;;;;;;;;;;;;;;;5.19;40.09;98622.91;4611640;27;16019283;-93
2022/03/02 10:25:32;;;;;;;;;;;;;;;5.42;40.25;98627.91;5173485;27;20010;-94
2022/03/02 10:28:04;;;;;;;;;;;;;;;5.08;39.42;98624.72;5172271;27;19944;-96
2022/03/02 10:30:33;;;;;;;;;;;;;;;4.92;40.39;98628.38;5168302;27;19928;-92
2022/03/02 10:33:10;;;;;;;;;;;;;;;4.98;40.89;98616.56;5182570;27;19930;-92
2022/03/02 10:35:39;;;;;;;;;;;;;;;5.00;39.82;98622.50;5167550;27;19930;-89
2022/03/02 10:38:07;;;;;;;;;;;;;;;5.10;40.08;98627.97;5187497;27;21284;-92
2022/03/02 10:40:37;;;;;;;;;;;;;;;5.11;39.28;98632.28;5170578;27;19922;-92
2022/03/02 10:43:07;;;;;;;;;;;;;;;5.29;39.44;98627.56;5184962;27;19976;-93
2022/03/02 10:45:37;;;;;;;;;;;;;;;5.25;39.77;98622.69;5178891;27;19948;-95
2022/03/02 10:48:09;;;;;;;;;;;;;;;5.51;39.14;98620.97;5202005;27;19923;-90
2022/03/02 10:50:37;;;;;;;;;;;;;;;5.76;38.37;98617.59;5185600;27;19930;-91
2022/03/02 10:53:07;;;;;;;;;;;;;;;5.92;37.86;98620.41;5163395;27;19949;-83
2022/03/02 10:56:08;;;;;;;;;;;;;;;5.95;37.14;98617.97;5179752;27;20440;-94
2022/03/02 11:21:20;;;;;;;;;;;;;;;6.63;34.40;98572.00;3422683;28;21791;-95
2022/03/02 11:23:49;;;;;;;;;;;;;;;6.74;35.53;98572.81;5034053;28;19929;-96
2022/03/02 11:26:18;;;;;;;;;;;;;;;6.75;35.28;98563.63;5039615;28;19988;-89
2022/03/02 11:28:46;;;;;;;;;;;;;;;6.78;34.16;98558.50;5031497;28;19932;-93
2022/03/02 11:34:59;;;;;;;;;;;;;;;6.46;34.82;98556.06;4991676;28;19910;-94
2022/03/02 11:38:07;;;;;;;;;;;;;;;6.68;35.28;98558.50;4990616;28;20381;-93
2022/03/02 11:40:57;;;;;;;;;;;;;;;6.74;34.56;98552.00;4974616;28;19930;-94
2022/03/02 11:43:45;;;;;;;;;;;;;;;6.78;34.96;98547.69;4981675;28;19944;-89
2022/03/02 11:46:13;;;;;;;;;;;;;;;6.97;34.49;98541.72;4999427;28;19914;-88
2022/03/02 11:48:43;;;;;;;;;;;;;;;7.20;33.76;98548.47;4977577;28;19930;-93
2022/03/02 11:51:34;;;;;;;;;;;;;;;7.32;33.82;98533.56;4985030;28;20386;-93
2022/03/02 11:54:07;;;;;;;;;;;;;;;7.37;33.93;98531.94;4980206;28;19930;-93
2022/03/02 11:57:00;;;;;;;;;;;;;;;7.14;33.33;98534.16;5104320;23;19934;-94
2022/03/02 12:06:55;;;;;;;;;;;;;;;7.31;33.13;98523.03;4968111;28;19926;-94
2022/03/02 12:09:28;;;;;;;;;;;;;;;6.98;34.84;98522.56;4963282;28;20029;-91
2022/03/02 12:12:24;;;;;;;;;;;;;;;7.05;34.76;98519.56;5534174;23;19973;-88
2022/03/02 12:14:56;;;;;;;;;;;;;;;7.08;34.95;98510.91;5006893;28;19957;-88
2022/03/02 12:17:25;;;;;;;;;;;;;;;7.14;34.76;98511.69;4993289;28;20009;-94
2022/03/02 12:19:54;;;;;;;;;;;;;;;7.42;34.13;98513.00;5004885;28;19938;-94
2022/03/02 12:22:22;;;;;;;;;;;;;;;7.40;33.11;98507.03;5008444;28;19914;-86
2022/03/02 12:24:50;;;;;;;;;;;;;;;7.64;34.17;98508.03;5020022;28;19914;-82
2022/03/02 12:27:21;;;;;;;;;;;;;;;7.63;33.18;98505.59;5011578;28;19980;-88
2022/03/02 12:29:59;;;;;;;;;;;;;;;7.93;33.18;98500.03;5109218;23;20171;-90
2022/03/02 12:32:29;;;;;;;;;;;;;;;8.04;33.33;98503.47;4994931;28;19984;-91
2022/03/02 12:35:04;;;;;;;;;;;;;;;7.68;32.63;98498.28;5016016;28;19961;-88
2022/03/02 12:37:33;;;;;;;;;;;;;;;7.83;32.83;98490.09;5005549;28;20012;-95
2022/03/02 12:40:02;;;;;;;;;;;;;;;7.88;32.97;98490.06;5009014;28;19953;-81
2022/03/02 12:42:54;;;;;;;;;;;;;;;7.94;33.05;98484.63;5004892;28;19937;-92
2022/03/02 12:45:24;;;;;;;;;;;;;;;7.85;32.82;98489.81;5004014;28;20360;-92
2022/03/02 12:47:52;;;;;;;;;;;;;;;7.69;32.87;98485.56;5003694;28;19930;-93
2022/03/02 12:50:22;;;;;;;;;;;;;;;7.23;32.44;98481.13;5007948;28;19926;-94
2022/03/02 12:52:51;;;;;;;;;;;;;;;7.40;32.98;98475.41;4998132;28;20030;-91
2022/03/02 12:55:19;;;;;;;;;;;;;;;7.52;33.69;98475.09;5005050;28;19929;-92
2022/03/02 12:57:47;;;;;;;;;;;;;;;7.87;32.98;98474.09;5001919;28;20011;-91
2022/03/02 13:00:17;;;;;;;;;;;;;;;7.94;33.38;98468.38;5007068;28;19961;-92
2022/03/02 13:02:48;;;;;;;;;;;;;;;7.94;32.48;98468.38;5009603;28;19929;-92
2022/03/02 13:05:17;;;;;;;;;;;;;;;7.79;31.22;98461.97;5011562;28;20361;-92
2022/03/02 13:08:05;;;;;;;;;;;;;;;7.78;32.50;98454.94;5004563;28;19931;-92
2022/03/02 13:10:33;;;;;;;;;;;;;;;8.02;33.21;98459.66;5003200;28;20012;-93
2022/03/02 13:13:03;;;;;;;;;;;;;;;8.11;32.76;98452.56;5008867;28;19974;-94
2022/03/02 13:15:35;;;;;;;;;;;;;;;8.15;31.99;98453.63;5009196;28;19961;-93
2022/03/02 13:18:14;;;;;;;;;;;;;;;8.19;31.36;98457.38;5013079;28;20402;-92
2022/03/02 13:20:43;;;;;;;;;;;;;;;8.13;30.98;98459.31;5012467;28;19929;-88
2022/03/02 13:23:11;;;;;;;;;;;;;;;7.66;31.34;98454.47;5014423;28;20331;-93
2022/03/02 13:25:39;;;;;;;;;;;;;;;7.93;31.66;98455.94;5010612;28;19926;-90
2022/03/02 13:28:09;;;;;;;;;;;;;;;7.95;31.37;98461.88;5016847;28;20343;-95
2022/03/02 13:30:37;;;;;;;;;;;;;;;7.72;31.42;98455.25;5005062;28;19926;-89
2022/03/02 13:33:07;;;;;;;;;;;;;;;7.80;32.10;98450.06;5008858;28;19926;-91
2022/03/02 13:35:54;;;;;;;;;;;;;;;7.69;32.21;98450.41;5020736;28;19949;-89
2022/03/02 13:38:22;;;;;;;;;;;;;;;7.98;31.55;98439.66;5009200;28;19933;-92
2022/03/02 13:40:50;;;;;;;;;;;;;;;7.99;30.70;98447.53;5004538;28;20606;-89
2022/03/02 13:43:34;;;;;;;;;;;;;;;7.95;31.09;98434.84;5002372;28;19980;-90
2022/03/02 13:46:21;;;;;;;;;;;;;;;7.96;30.52;98431.03;4998974;28;20380;-87
2022/03/02 13:48:55;;;;;;;;;;;;;;;8.05;31.94;98426.66;5015312;28;19929;-91
2022/03/02 13:51:26;;;;;;;;;;;;;;;7.96;33.37;98421.00;5011175;28;19929;-92
2022/03/02 13:53:58;;;;;;;;;;;;;;;8.09;32.43;98425.78;5008248;28;20024;-92
2022/03/02 13:56:34;;;;;;;;;;;;;;;7.84;31.45;98421.38;5014918;28;19922;-94
2022/03/02 14:01:56;;;;;;;;;;;;;;;7.87;31.78;98414.56;5014165;28;19926;-94
2022/03/02 14:04:43;;;;;;;;;;;;;;;8.00;31.75;98416.66;5006158;28;19932;-90
2022/03/02 14:07:16;;;;;;;;;;;;;;;7.95;32.54;98410.47;5017673;28;19941;-96